createdAt,value
2023-04-15T00:01:59.961Z,99038.84
2023-04-15T00:07:02.976Z,99037.91
2023-04-15T00:12:05.520Z,99038.84
2023-04-15T00:17:07.379Z,99034.88
2023-04-15T00:22:09.254Z,99036.19
2023-04-15T00:27:11.418Z,99030.31
2023-04-15T00:32:13.391Z,99029.00
2023-04-15T00:37:15.740Z,99026.69
2023-04-15T00:42:18.319Z,99016.19
2023-04-15T00:47:21.118Z,99020.50
2023-04-15T00:52:22.699Z,99014.81
2023-04-15T00:57:24.456Z,99011.84
2023-04-15T01:02:26.257Z,99009.31
2023-04-15T01:07:27.965Z,99007.50
2023-04-15T01:12:29.866Z,99004.16
2023-04-15T01:17:31.535Z,99001.81
2023-04-15T01:22:33.465Z,98992.16
2023-04-15T01:27:36.451Z,99003.41
2023-04-15T01:32:38.306Z,98992.16
2023-04-15T01:37:40.042Z,98990.47
2023-04-15T01:42:41.702Z,98980.84
2023-04-15T01:47:43.784Z,98988.66
2023-04-15T01:52:45.366Z,98993.16
2023-04-15T01:57:47.295Z,98977.13
2023-04-15T02:02:49.536Z,98975.81
2023-04-15T02:07:51.924Z,98962.44
2023-04-15T02:12:54.227Z,98961.13
2023-04-15T02:17:56.944Z,98960.81
2023-04-15T02:22:58.647Z,98955.31
2023-04-15T02:28:00.274Z,98962.47
2023-04-15T02:33:01.997Z,98950.91
2023-04-15T02:38:03.797Z,98951.75
2023-04-15T02:43:07.074Z,98958.09
2023-04-15T02:48:09.629Z,98948.09
2023-04-15T02:53:11.688Z,98966.28
2023-04-15T02:58:13.645Z,98964.78
2023-04-15T03:03:15.484Z,98957.13
2023-04-15T03:08:17.432Z,98946.41
2023-04-15T03:13:19.632Z,98953.72
2023-04-15T03:18:22.084Z,98945.88
2023-04-15T03:23:23.674Z,98941.25
2023-04-15T03:28:25.379Z,98943.94
2023-04-15T03:33:27.082Z,98938.72
2023-04-15T03:38:29.923Z,98932.28
2023-04-15T03:43:31.482Z,98921.38
2023-04-15T03:48:33.031Z,98921.72
2023-04-15T03:53:34.643Z,98913.63
2023-04-15T03:58:36.648Z,98915.44
2023-04-15T04:03:38.585Z,98918.03
2023-04-15T04:08:40.315Z,98920.72
2023-04-15T04:13:41.870Z,98935.16
2023-04-15T04:18:43.444Z,98927.06
2023-04-15T04:23:45.028Z,98924.75
2023-04-15T04:28:46.620Z,98920.06
2023-04-15T04:33:48.148Z,98925.41
2023-04-15T04:38:49.702Z,98928.59
2023-04-15T04:43:51.360Z,98937.63
2023-04-15T04:48:52.900Z,98927.06
2023-04-15T04:53:54.510Z,98945.75
2023-04-15T04:58:56.457Z,98948.59
2023-04-15T05:03:58.066Z,98954.16
2023-04-15T05:08:59.973Z,98947.47
2023-04-15T05:14:02.269Z,98951.75
2023-04-15T05:19:03.940Z,98959.59
2023-04-15T05:24:06.337Z,98959.81
2023-04-15T05:29:07.941Z,98956.09
2023-04-15T05:34:10.256Z,98966.09
2023-04-15T05:39:11.950Z,98963.25
2023-04-15T05:44:13.757Z,98965.06
2023-04-15T05:49:15.577Z,98973.78
2023-04-15T05:54:18.674Z,98980.81
2023-04-15T05:59:21.853Z,98989.41
2023-04-15T06:04:24.165Z,98986.72
2023-04-15T06:09:25.869Z,98994.03
2023-04-15T06:14:27.710Z,98995.88
2023-04-15T06:19:29.496Z,99002.06
2023-04-15T06:24:31.639Z,99007.16
2023-04-15T06:29:33.192Z,98997.41
2023-04-15T06:34:34.815Z,99001.53
2023-04-15T06:39:36.468Z,99016.09
2023-04-15T06:44:38.150Z,99014.34
2023-04-15T06:49:40.461Z,99023.19
2023-04-15T06:54:42.774Z,99027.34
2023-04-15T06:59:44.413Z,99027.34
2023-04-15T07:04:46.526Z,99029.66
2023-04-15T07:09:48.181Z,99031.81
2023-04-15T07:14:49.748Z,99037.94
2023-04-15T07:19:51.440Z,99051.00
2023-04-15T07:24:53.014Z,99051.97
2023-04-15T07:29:54.813Z,99054.47
2023-04-15T07:34:56.814Z,99058.56
2023-04-15T07:39:58.353Z,99061.91
2023-04-15T07:44:59.987Z,99066.25
2023-04-15T07:50:02.248Z,99066.25
2023-04-15T07:55:04.700Z,99075.38
2023-04-15T08:00:07.661Z,99080.31
2023-04-15T08:05:15.902Z,99086.06
2023-04-15T08:10:17.751Z,99091.94
2023-04-15T08:15:19.351Z,99094.38
2023-04-15T08:20:20.987Z,99106.75
2023-04-15T08:25:22.680Z,99106.63
2023-04-15T08:30:24.532Z,99111.03
2023-04-15T08:35:26.441Z,99113.63
2023-04-15T08:40:34.892Z,99109.28
2023-04-15T08:45:38.652Z,99116.44
2023-04-15T08:50:40.645Z,99115.31
2023-04-15T08:55:47.361Z,99128.22
2023-04-15T09:00:49.232Z,99133.59
2023-04-15T09:05:53.217Z,99140.72
2023-04-15T09:10:55.154Z,99147.88
2023-04-15T09:15:58.442Z,99150.69
2023-04-15T09:21:08.751Z,99151.47
2023-04-15T09:26:10.598Z,99153.94
2023-04-15T09:31:12.261Z,99148.38
2023-04-15T09:36:13.856Z,99161.44
2023-04-15T09:41:21.217Z,99169.84
2023-04-15T09:46:41.514Z,99174.91
2023-04-15T09:51:48.625Z,99189.22
2023-04-15T09:57:05.469Z,99197.34
2023-04-15T10:02:10.293Z,99194.88
2023-04-15T10:07:12.861Z,99198.56
2023-04-15T10:12:17.042Z,99205.94
2023-04-15T10:17:22.330Z,99212.44
2023-04-15T10:22:24.709Z,99206.25
2023-04-15T10:27:27.772Z,99217.47
2023-04-15T10:32:29.839Z,99225.66
2023-04-15T10:37:36.770Z,99217.59
2023-04-15T10:42:38.369Z,99214.59
2023-04-15T10:47:39.971Z,99220.94
2023-04-15T10:52:42.236Z,99227.56
2023-04-15T10:57:44.275Z,99218.50
2023-04-15T11:02:47.292Z,99223.09
2023-04-15T11:07:51.756Z,99237.13
2023-04-15T11:12:57.392Z,99241.22
2023-04-15T11:18:40.534Z,99254.91
2023-04-15T11:23:49.262Z,99255.72
2023-04-15T11:28:50.809Z,99256.00
2023-04-15T11:33:56.365Z,99268.00
2023-04-15T11:38:59.236Z,99273.50
2023-04-15T11:44:01.397Z,99266.94
2023-04-15T11:49:04.828Z,99270.47
2023-04-15T11:54:06.624Z,99276.31
2023-04-15T11:59:08.317Z,99286.13
2023-04-15T12:04:20.898Z,99290.72
2023-04-15T12:09:25.230Z,99299.91
2023-04-15T12:14:33.475Z,99310.59
2023-04-15T12:19:37.920Z,99310.91
2023-04-15T12:24:40.308Z,99316.25
2023-04-15T12:29:45.427Z,99320.19
2023-04-15T12:34:51.638Z,99334.22
2023-04-15T12:39:54.024Z,99331.09
2023-04-15T12:44:55.630Z,99337.47
2023-04-15T12:49:57.212Z,99339.22
2023-04-15T12:54:58.844Z,99345.88
2023-04-15T13:00:00.680Z,99354.38
2023-04-15T13:05:02.321Z,99360.56
2023-04-15T13:10:04.146Z,99360.19
2023-04-15T13:15:06.213Z,99367.94
2023-04-15T13:20:08.844Z,99366.78
2023-04-15T13:25:10.484Z,99376.84
2023-04-15T13:30:12.408Z,99377.03
2023-04-15T13:35:14.707Z,99385.56
2023-04-15T13:40:16.550Z,99384.50
2023-04-15T13:45:18.207Z,99392.63
2023-04-15T13:50:20.032Z,99394.44
2023-04-15T13:55:23.734Z,99398.50
2023-04-15T14:00:27.139Z,99404.53
2023-04-15T14:05:28.741Z,99396.56
2023-04-15T14:10:30.299Z,99404.56
2023-04-15T14:15:32.139Z,99412.66
2023-04-15T14:20:33.751Z,99417.63
2023-04-15T14:25:35.431Z,99425.91
2023-04-15T14:30:36.993Z,99432.34
2023-04-15T14:35:39.080Z,99437.16
2023-04-15T14:40:41.371Z,99431.19
2023-04-15T14:45:44.643Z,99441.44
2023-04-15T14:50:47.141Z,99446.94
2023-04-15T14:55:48.722Z,99453.47
2023-04-15T15:00:50.348Z,99458.31
2023-04-15T15:05:52.164Z,99468.88
2023-04-15T15:10:53.831Z,99464.28
2023-04-15T15:15:55.443Z,99480.63
2023-04-15T15:20:57.017Z,99490.78
2023-04-15T15:25:59.006Z,99489.25
2023-04-15T15:31:00.758Z,99498.97
2023-04-15T15:36:03.562Z,99502.94
2023-04-15T15:41:06.355Z,99505.47
2023-04-15T15:46:07.982Z,99510.06
2023-04-15T15:51:09.658Z,99516.63
2023-04-15T15:56:11.317Z,99524.44
2023-04-15T16:01:12.959Z,99526.34
2023-04-15T16:06:14.557Z,99532.34
2023-04-15T16:11:16.181Z,99533.66
2023-04-15T16:16:17.803Z,99539.31
2023-04-15T16:21:20.251Z,99539.63
2023-04-15T16:26:21.877Z,99546.06
2023-04-15T16:31:23.562Z,99550.41
2023-04-15T16:36:25.940Z,99555.84
2023-04-15T16:41:28.338Z,99556.00
2023-04-15T16:46:30.004Z,99563.63
2023-04-15T16:51:32.120Z,99572.03
2023-04-15T16:56:33.678Z,99582.69
2023-04-15T17:01:35.465Z,99579.03
2023-04-15T17:06:37.041Z,99590.13
2023-04-15T17:11:40.538Z,99596.84
2023-04-15T17:16:43.136Z,99598.88
2023-04-15T17:21:44.714Z,99606.56
2023-04-15T17:26:47.078Z,99618.13
2023-04-15T17:31:48.680Z,99622.28
2023-04-15T17:36:51.409Z,99619.81
2023-04-15T17:41:52.979Z,99629.38
2023-04-15T17:46:54.706Z,99645.44
2023-04-15T17:51:56.419Z,99644.31
2023-04-15T17:56:59.357Z,99657.53
2023-04-15T18:02:01.033Z,99662.09
2023-04-15T18:07:02.756Z,99663.91
2023-04-15T18:12:06.319Z,99675.63
2023-04-15T18:17:07.944Z,99687.50
2023-04-15T18:22:09.560Z,99688.00
2023-04-15T18:27:11.184Z,99696.56
2023-04-15T18:32:12.819Z,99709.78
2023-04-15T18:37:14.517Z,99711.44
2023-04-15T18:42:16.125Z,99712.97
2023-04-15T18:47:17.839Z,99716.81
2023-04-15T18:52:19.668Z,99723.16
2023-04-15T18:57:23.463Z,99724.34
2023-04-15T19:02:32.951Z,99717.00
2023-04-15T19:07:35.152Z,99728.38
2023-04-15T19:12:37.045Z,99747.59
2023-04-15T19:17:38.643Z,99750.97
2023-04-15T19:22:40.369Z,99756.81
2023-04-15T19:27:42.041Z,99759.66
2023-04-15T19:32:43.635Z,99773.03
2023-04-15T19:37:45.308Z,99762.00
2023-04-15T19:42:46.969Z,99774.69
2023-04-15T19:47:48.628Z,99776.88
2023-04-15T19:52:50.525Z,99783.06
2023-04-15T19:57:52.081Z,99786.59
2023-04-15T20:02:55.935Z,99790.91
2023-04-15T20:07:59.784Z,99796.41
2023-04-15T20:13:01.443Z,99802.75
2023-04-15T20:18:03.318Z,99807.25
2023-04-15T20:23:04.977Z,99819.44
2023-04-15T20:28:06.543Z,99826.09
2023-04-15T20:33:08.367Z,99827.94
2023-04-15T20:38:09.993Z,99829.13
2023-04-15T20:43:12.720Z,99835.63
2023-04-15T20:48:14.830Z,99836.09
2023-04-15T20:53:16.561Z,99845.47
2023-04-15T20:58:18.155Z,99840.97
2023-04-15T21:03:19.921Z,99846.16
2023-04-15T21:08:29.041Z,99848.13
2023-04-15T21:13:31.004Z,99851.28
2023-04-15T21:18:32.701Z,99858.59
2023-04-15T21:23:35.966Z,99867.41
2023-04-15T21:28:39.041Z,99882.72
2023-04-15T21:33:40.750Z,99885.31
2023-04-15T21:38:42.387Z,99885.41
2023-04-15T21:43:43.980Z,99889.88
2023-04-15T21:48:46.223Z,99887.66
2023-04-15T21:53:48.373Z,99894.00
2023-04-15T21:58:50.248Z,99895.03
2023-04-15T22:03:52.896Z,99911.72
2023-04-15T22:08:57.504Z,99917.53
2023-04-15T22:14:14.874Z,99924.72
2023-04-15T22:19:16.430Z,99915.00
2023-04-15T22:24:31.665Z,99924.53
2023-04-15T22:29:39.674Z,99935.06
2023-04-15T22:34:41.507Z,99933.84
2023-04-15T22:39:43.175Z,99945.91
2023-04-15T22:44:44.704Z,99947.38
2023-04-15T22:49:46.263Z,99954.41
2023-04-15T22:54:47.849Z,99954.84
2023-04-15T22:59:49.531Z,99960.19
2023-04-15T23:04:51.315Z,99959.34
2023-04-15T23:09:52.896Z,99962.50
2023-04-15T23:14:54.485Z,99975.19
2023-04-15T23:19:56.402Z,99971.81
2023-04-15T23:24:57.952Z,99976.63
2023-04-15T23:29:59.506Z,99982.50
2023-04-15T23:35:01.065Z,99980.41
2023-04-15T23:40:02.711Z,99985.94
2023-04-15T23:45:04.547Z,99980.34
2023-04-15T23:50:09.421Z,99987.97
2023-04-15T23:55:11.040Z,99987.44
